createdAt,value
2023-02-06T00:01:07.283Z,2.30
2023-02-06T00:03:38.330Z,3.63
2023-02-06T00:06:09.661Z,4.68
2023-02-06T00:08:40.733Z,3.35
2023-02-06T00:16:29.156Z,2.40
2023-02-06T00:19:01.675Z,3.33
2023-02-06T00:21:33.305Z,4.55
2023-02-06T00:24:05.574Z,4.45
2023-02-06T00:26:37.027Z,2.88
2023-02-06T00:29:08.042Z,3.70
2023-02-06T00:31:39.179Z,4.88
2023-02-06T00:34:10.285Z,2.33
2023-02-06T00:36:43.327Z,3.17
2023-02-06T00:39:14.442Z,2.38
2023-02-06T00:41:46.794Z,3.85
2023-02-06T00:44:18.038Z,3.65
2023-02-06T00:49:20.637Z,2.83
2023-02-06T00:54:22.768Z,4.65
2023-02-06T00:56:53.952Z,3.60
2023-02-06T00:59:25.334Z,5.40
2023-02-06T01:01:56.693Z,3.80
2023-02-06T01:04:27.728Z,5.65
2023-02-06T01:06:58.668Z,4.32
2023-02-06T01:09:29.918Z,6.68
2023-02-06T01:12:01.039Z,4.65
2023-02-06T01:17:03.048Z,3.05
2023-02-06T01:19:34.461Z,4.55
2023-02-06T01:22:05.479Z,4.32
2023-02-06T01:24:36.681Z,3.58
2023-02-06T01:27:08.030Z,2.72
2023-02-06T01:29:39.221Z,3.80
2023-02-06T01:32:10.451Z,6.00
2023-02-06T01:34:41.957Z,3.65
2023-02-06T01:37:13.177Z,4.85
2023-02-06T01:42:16.786Z,5.70
2023-02-06T01:44:48.869Z,4.55
2023-02-06T01:47:20.717Z,6.00
2023-02-06T01:52:27.514Z,3.97
2023-02-06T01:55:05.556Z,5.75
2023-02-06T01:57:37.546Z,5.05
2023-02-06T02:00:12.381Z,6.93
2023-02-06T02:02:49.791Z,6.57
2023-02-06T02:05:22.436Z,7.15
2023-02-06T02:08:02.797Z,8.30
2023-02-06T02:10:34.492Z,6.80
2023-02-06T02:13:05.542Z,6.75
2023-02-06T02:16:03.430Z,8.60
2023-02-06T02:18:54.096Z,9.70
2023-02-06T02:21:55.803Z,8.40
2023-02-06T02:24:33.026Z,7.00
2023-02-06T02:27:22.655Z,8.48
2023-02-06T02:30:30.426Z,7.88
2023-02-06T02:33:35.357Z,9.57
2023-02-06T02:36:17.503Z,9.73
2023-02-06T02:38:51.926Z,9.25
2023-02-06T02:41:51.408Z,8.77
2023-02-06T02:44:37.869Z,9.55
2023-02-06T02:47:10.983Z,10.10
2023-02-06T02:49:44.300Z,11.30
2023-02-06T02:52:17.668Z,9.02
2023-02-06T02:54:48.632Z,10.70
2023-02-06T02:57:30.588Z,11.00
2023-02-06T03:00:03.621Z,7.07
2023-02-06T03:02:38.350Z,11.32
2023-02-06T03:05:13.372Z,7.22
2023-02-06T03:08:10.320Z,7.95
2023-02-06T03:10:50.940Z,9.30
2023-02-06T03:13:49.630Z,9.45
2023-02-06T03:16:31.259Z,9.13
2023-02-06T03:19:20.197Z,11.25
2023-02-06T03:21:52.788Z,7.95
2023-02-06T03:24:27.264Z,10.05
2023-02-06T03:27:02.274Z,9.13
2023-02-06T03:29:35.469Z,11.27
2023-02-06T03:32:19.649Z,8.60
2023-02-06T03:35:07.476Z,8.98
2023-02-06T03:37:39.718Z,8.23
2023-02-06T03:40:11.773Z,9.27
2023-02-06T03:42:47.138Z,9.18
2023-02-06T03:45:40.525Z,12.02
2023-02-06T03:48:15.411Z,8.52
2023-02-06T03:50:49.416Z,9.02
2023-02-06T03:53:23.716Z,11.35
2023-02-06T03:55:58.341Z,10.45
2023-02-06T03:58:29.978Z,9.63
2023-02-06T04:01:02.495Z,10.68
2023-02-06T04:03:34.464Z,9.60
2023-02-06T04:06:05.653Z,11.35
2023-02-06T04:08:37.553Z,9.68
2023-02-06T04:11:08.869Z,8.02
2023-02-06T04:13:40.057Z,9.90
2023-02-06T04:16:11.360Z,9.80
2023-02-06T04:18:42.552Z,9.68
2023-02-06T04:23:44.336Z,12.25
2023-02-06T04:26:15.687Z,9.50
2023-02-06T04:28:46.785Z,10.38
2023-02-06T04:31:17.951Z,10.57
2023-02-06T04:36:19.651Z,10.35
2023-02-06T04:38:50.605Z,10.93
2023-02-06T04:41:25.128Z,10.65
2023-02-06T04:43:56.263Z,12.55
2023-02-06T04:46:28.075Z,14.20
2023-02-06T04:51:29.826Z,13.85
2023-02-06T04:56:31.802Z,14.10
2023-02-06T04:59:02.891Z,13.88
2023-02-06T05:01:34.584Z,14.35
2023-02-06T05:04:06.198Z,10.63
2023-02-06T05:06:37.902Z,12.30
2023-02-06T05:09:09.429Z,11.73
2023-02-06T05:11:40.630Z,11.95
2023-02-06T05:16:42.529Z,11.75
2023-02-06T05:19:13.546Z,11.05
2023-02-06T05:24:15.700Z,11.73
2023-02-06T05:26:47.924Z,12.82
2023-02-06T05:29:18.957Z,10.90
2023-02-06T05:31:50.113Z,11.63
2023-02-06T05:34:24.011Z,13.05
2023-02-06T05:39:25.870Z,12.38
2023-02-06T05:41:56.860Z,10.80
2023-02-06T05:44:28.118Z,11.23
2023-02-06T05:46:59.771Z,11.23
2023-02-06T05:49:31.080Z,11.48
2023-02-06T05:52:02.388Z,13.20
2023-02-06T05:54:33.848Z,8.27
2023-02-06T05:57:05.624Z,11.00
2023-02-06T05:59:36.939Z,9.35
2023-02-06T06:02:08.442Z,9.20
2023-02-06T06:07:09.794Z,11.63
2023-02-06T06:09:42.428Z,12.75
2023-02-06T06:12:13.686Z,9.85
2023-02-06T06:17:15.573Z,11.68
2023-02-06T06:22:17.683Z,13.35
2023-02-06T06:24:49.245Z,13.00
2023-02-06T06:27:20.381Z,14.60
2023-02-06T06:29:51.746Z,13.45
2023-02-06T06:32:23.004Z,12.57
2023-02-06T06:34:53.950Z,13.80
2023-02-06T06:37:25.336Z,13.55
2023-02-06T06:39:56.493Z,14.77
2023-02-06T06:42:27.666Z,13.95
2023-02-06T06:47:30.233Z,17.70
2023-02-06T06:50:01.468Z,16.83
2023-02-06T06:52:33.584Z,13.35
2023-02-06T06:55:04.862Z,14.15
2023-02-06T06:57:35.979Z,16.33
2023-02-06T07:00:07.736Z,14.20
2023-02-06T07:05:09.486Z,13.57
2023-02-06T07:07:40.889Z,18.35
2023-02-06T07:10:13.014Z,13.55
2023-02-06T07:12:44.588Z,12.85
2023-02-06T07:15:15.750Z,16.35
2023-02-06T07:17:46.745Z,17.85
2023-02-06T07:20:18.227Z,15.50
2023-02-06T07:22:51.244Z,14.38
2023-02-06T07:25:22.817Z,15.48
2023-02-06T07:27:54.145Z,12.93
2023-02-06T07:30:25.471Z,18.00
2023-02-06T07:32:56.505Z,15.32
2023-02-06T07:35:27.425Z,18.23
2023-02-06T07:37:58.999Z,15.13
2023-02-06T07:40:44.053Z,16.80
2023-02-06T07:43:16.348Z,13.93
2023-02-06T07:45:47.870Z,20.40
2023-02-06T07:48:19.605Z,14.52
2023-02-06T07:50:50.960Z,18.55
2023-02-06T07:53:22.559Z,12.20
2023-02-06T07:58:24.225Z,16.48
2023-02-06T08:00:56.349Z,17.73
2023-02-06T08:03:27.932Z,13.52
2023-02-06T08:05:58.973Z,14.73
2023-02-06T08:08:30.129Z,19.52
2023-02-06T08:13:31.957Z,14.13
2023-02-06T08:16:10.175Z,13.25
2023-02-06T08:18:41.740Z,15.25
2023-02-06T08:21:15.157Z,15.65
2023-02-06T08:23:47.340Z,16.25
2023-02-06T08:28:52.131Z,17.90
2023-02-06T08:31:26.480Z,18.45
2023-02-06T08:33:58.624Z,19.40
2023-02-06T08:36:33.486Z,21.02
2023-02-06T08:39:06.144Z,17.02
2023-02-06T08:41:40.045Z,17.98
2023-02-06T08:44:18.707Z,15.90
2023-02-06T08:46:56.198Z,14.95
2023-02-06T08:49:33.434Z,18.38
2023-02-06T08:52:04.939Z,15.85
2023-02-06T08:54:38.746Z,18.10
2023-02-06T08:57:11.250Z,19.02
2023-02-06T08:59:43.032Z,21.42
2023-02-06T09:02:14.413Z,16.80
2023-02-06T09:04:46.042Z,18.58
2023-02-06T09:07:17.456Z,22.92
2023-02-06T09:12:19.437Z,20.42
2023-02-06T09:14:51.402Z,18.50
2023-02-06T09:19:53.309Z,18.88
2023-02-06T09:22:24.493Z,17.58
2023-02-06T09:24:55.864Z,16.75
2023-02-06T09:27:26.937Z,20.48
2023-02-06T09:29:58.051Z,16.50
2023-02-06T09:32:29.054Z,19.67
2023-02-06T09:35:00.838Z,17.27
2023-02-06T09:37:35.241Z,19.70
2023-02-06T09:40:06.525Z,19.52
2023-02-06T09:42:40.447Z,16.38
2023-02-06T09:45:32.477Z,18.55
2023-02-06T09:48:24.646Z,19.52
2023-02-06T09:51:08.893Z,22.02
2023-02-06T09:54:01.493Z,19.55
2023-02-06T09:56:52.897Z,17.83
2023-02-06T09:59:33.699Z,19.33
2023-02-06T10:02:07.621Z,13.45
2023-02-06T10:04:54.330Z,17.88
2023-02-06T10:07:32.911Z,17.17
2023-02-06T10:10:20.646Z,15.77
2023-02-06T10:13:11.535Z,19.20
2023-02-06T10:15:54.428Z,15.43
2023-02-06T10:18:41.538Z,19.42
2023-02-06T10:21:15.454Z,24.40
2023-02-06T10:24:21.664Z,15.65
2023-02-06T10:26:55.012Z,16.27
2023-02-06T10:29:31.837Z,14.55
2023-02-06T10:32:23.415Z,14.50
2023-02-06T10:35:06.439Z,15.82
2023-02-06T10:38:10.719Z,17.77
2023-02-06T10:40:48.881Z,15.20
2023-02-06T10:43:46.178Z,16.90
2023-02-06T10:46:40.523Z,17.33
2023-02-06T10:49:38.136Z,13.80
2023-02-06T10:52:31.342Z,13.25
2023-02-06T10:55:26.196Z,16.42
2023-02-06T10:58:18.304Z,19.85
2023-02-06T11:00:51.161Z,16.67
2023-02-06T11:03:26.194Z,22.58
2023-02-06T11:05:58.198Z,16.98
2023-02-06T11:08:41.847Z,18.83
2023-02-06T11:11:28.286Z,18.80
2023-02-06T11:14:13.892Z,18.75
2023-02-06T11:16:45.464Z,19.88
2023-02-06T11:19:27.981Z,17.00
2023-02-06T11:22:11.986Z,17.08
2023-02-06T11:25:03.935Z,13.50
2023-02-06T11:27:37.051Z,18.63
2023-02-06T11:30:33.468Z,15.85
2023-02-06T11:33:38.081Z,15.48
2023-02-06T11:36:33.209Z,15.07
2023-02-06T11:39:08.675Z,18.42
2023-02-06T11:41:39.827Z,20.77
2023-02-06T11:44:16.210Z,15.52
2023-02-06T11:46:47.273Z,20.13
2023-02-06T11:49:28.143Z,16.55
2023-02-06T11:52:05.309Z,19.95
2023-02-06T11:54:37.908Z,20.20
2023-02-06T11:57:39.111Z,16.35
2023-02-06T12:00:30.285Z,17.23
2023-02-06T12:03:01.588Z,18.40
2023-02-06T12:05:37.657Z,14.85
2023-02-06T12:08:20.021Z,17.42
2023-02-06T12:10:58.770Z,13.75
2023-02-06T12:13:39.585Z,20.73
2023-02-06T12:16:12.890Z,17.02
2023-02-06T12:18:46.118Z,17.70
2023-02-06T12:21:26.428Z,18.02
2023-02-06T12:24:32.612Z,18.95
2023-02-06T12:27:12.153Z,14.20
2023-02-06T12:29:58.534Z,18.80
2023-02-06T12:32:44.117Z,18.58
2023-02-06T12:35:23.165Z,16.67
2023-02-06T12:37:58.426Z,16.00
2023-02-06T12:40:53.880Z,14.95
2023-02-06T12:43:25.143Z,22.48
2023-02-06T12:46:06.504Z,17.23
2023-02-06T12:48:54.563Z,16.53
2023-02-06T12:51:25.379Z,21.25
2023-02-06T12:54:03.650Z,23.00
2023-02-06T12:56:46.366Z,15.00
2023-02-06T12:59:52.266Z,13.50
2023-02-06T13:02:31.316Z,15.77
2023-02-06T13:05:07.251Z,17.67
2023-02-06T13:07:49.293Z,17.33
2023-02-06T13:10:23.357Z,14.40
2023-02-06T13:13:01.759Z,15.82
2023-02-06T13:15:43.095Z,12.07
2023-02-06T13:18:41.500Z,19.45
2023-02-06T13:21:33.601Z,18.63
2023-02-06T13:24:04.467Z,15.85
2023-02-06T13:26:52.953Z,21.88
2023-02-06T13:29:29.117Z,20.92
2023-02-06T13:32:21.278Z,17.92
2023-02-06T13:37:29.117Z,16.02
2023-02-06T13:40:28.116Z,16.15
2023-02-06T13:43:02.304Z,15.98
2023-02-06T13:45:49.061Z,15.00
2023-02-06T13:48:41.451Z,19.67
2023-02-06T13:51:31.729Z,21.05
2023-02-06T13:54:24.142Z,22.60
2023-02-06T13:57:26.196Z,15.02
2023-02-06T14:00:06.187Z,15.73
2023-02-06T14:02:44.001Z,16.45
2023-02-06T14:05:32.282Z,14.35
2023-02-06T14:08:27.137Z,12.35
2023-02-06T14:11:01.421Z,17.77
2023-02-06T14:14:00.407Z,18.30
2023-02-06T14:16:44.725Z,18.10
2023-02-06T14:19:42.615Z,17.25
2023-02-06T14:22:37.393Z,15.90
2023-02-06T14:25:33.455Z,17.55
2023-02-06T14:28:19.154Z,14.55
2023-02-06T14:30:50.258Z,19.95
2023-02-06T14:33:39.722Z,16.75
2023-02-06T14:36:46.376Z,16.67
2023-02-06T14:39:35.921Z,18.27
2023-02-06T14:42:25.018Z,21.85
2023-02-06T14:45:07.655Z,18.90
2023-02-06T14:47:44.551Z,18.88
2023-02-06T14:50:32.444Z,20.40
2023-02-06T14:53:12.022Z,16.85
2023-02-06T14:55:46.586Z,24.38
2023-02-06T14:58:30.637Z,16.67
2023-02-06T15:01:25.701Z,19.05
2023-02-06T15:04:17.802Z,19.10
2023-02-06T15:06:56.539Z,19.88
2023-02-06T15:09:34.856Z,22.05
2023-02-06T15:12:20.963Z,21.40
2023-02-06T15:15:04.301Z,19.90
2023-02-06T15:17:35.917Z,25.52
2023-02-06T15:20:30.042Z,24.40
2023-02-06T15:23:17.216Z,27.33
2023-02-06T15:26:04.675Z,25.38
2023-02-06T15:28:37.280Z,19.48
2023-02-06T15:31:19.345Z,23.55
2023-02-06T15:33:59.619Z,20.70
2023-02-06T15:36:37.162Z,20.50
2023-02-06T15:39:11.006Z,23.52
2023-02-06T15:41:48.170Z,13.77
2023-02-06T15:44:25.463Z,19.92
2023-02-06T15:46:57.909Z,15.98
2023-02-06T15:49:35.697Z,20.73
2023-02-06T15:52:08.271Z,17.67
2023-02-06T15:54:43.887Z,21.05
2023-02-06T15:57:28.693Z,17.95
2023-02-06T16:00:00.705Z,15.98
2023-02-06T16:02:39.634Z,20.15
2023-02-06T16:05:17.773Z,20.42
2023-02-06T16:07:50.947Z,21.33
2023-02-06T16:10:24.811Z,18.98
2023-02-06T16:12:58.809Z,23.00
2023-02-06T16:15:41.505Z,20.15
2023-02-06T16:18:29.229Z,21.17
2023-02-06T16:21:25.876Z,19.30
2023-02-06T16:24:05.393Z,21.20
2023-02-06T16:26:45.916Z,20.23
2023-02-06T16:29:32.268Z,23.98
2023-02-06T16:32:20.876Z,31.98
2023-02-06T16:34:53.102Z,18.90
2023-02-06T16:37:29.808Z,21.55
2023-02-06T16:40:00.961Z,18.92
2023-02-06T16:42:38.217Z,20.27
2023-02-06T16:45:20.384Z,21.55
2023-02-06T16:47:51.837Z,24.90
2023-02-06T16:50:23.637Z,20.75
2023-02-06T16:52:57.383Z,19.98
2023-02-06T16:55:30.315Z,22.58
2023-02-06T16:58:03.028Z,19.05
2023-02-06T17:00:35.269Z,18.42
2023-02-06T17:05:38.835Z,21.15
2023-02-06T17:08:28.121Z,18.67
2023-02-06T17:10:59.616Z,20.45
2023-02-06T17:13:31.028Z,21.90
2023-02-06T17:16:02.202Z,23.42
2023-02-06T17:18:33.464Z,13.35
2023-02-06T17:21:04.697Z,23.27
2023-02-06T17:23:36.668Z,21.13
2023-02-06T17:26:20.580Z,22.60
2023-02-06T17:28:53.081Z,18.45
2023-02-06T17:31:24.946Z,21.80
2023-02-06T17:36:34.489Z,24.80
2023-02-06T17:39:05.851Z,20.42
2023-02-06T17:41:37.758Z,22.00
2023-02-06T17:44:09.201Z,23.33
2023-02-06T17:46:40.834Z,18.27
2023-02-06T17:49:12.197Z,17.77
2023-02-06T17:51:44.763Z,21.42
2023-02-06T17:54:15.816Z,16.88
2023-02-06T17:56:46.958Z,15.07
2023-02-06T17:59:18.264Z,22.85
2023-02-06T18:01:50.299Z,22.25
2023-02-06T18:09:24.857Z,16.88
2023-02-06T18:14:26.434Z,19.05
2023-02-06T18:16:58.176Z,17.98
2023-02-06T18:19:29.411Z,17.02
2023-02-06T18:22:00.578Z,15.63
2023-02-06T18:24:31.660Z,14.02
2023-02-06T18:27:07.015Z,16.55
2023-02-06T18:29:49.853Z,15.98
2023-02-06T18:32:21.791Z,18.27
2023-02-06T18:34:53.006Z,12.73
2023-02-06T18:37:24.311Z,17.70
2023-02-06T18:39:56.814Z,17.90
2023-02-06T18:42:45.645Z,16.42
2023-02-06T18:45:16.973Z,17.13
2023-02-06T18:47:48.601Z,18.17
2023-02-06T18:50:23.851Z,16.40
2023-02-06T18:52:55.043Z,15.48
2023-02-06T18:55:26.817Z,15.18
2023-02-06T19:00:28.417Z,16.63
2023-02-06T19:03:00.740Z,16.95
2023-02-06T19:05:35.422Z,18.15
2023-02-06T19:08:07.609Z,15.48
2023-02-06T19:10:39.070Z,17.02
2023-02-06T19:15:41.019Z,14.50
2023-02-06T19:18:12.190Z,20.42
2023-02-06T19:20:46.397Z,13.73
2023-02-06T19:23:17.617Z,16.02
2023-02-06T19:25:49.058Z,19.55
2023-02-06T19:28:20.013Z,16.38
2023-02-06T19:30:51.300Z,16.50
2023-02-06T19:33:22.764Z,12.90
2023-02-06T19:35:53.908Z,15.70
2023-02-06T19:38:25.118Z,14.98
2023-02-06T19:40:56.100Z,18.30
2023-02-06T19:43:27.413Z,18.92
2023-02-06T19:45:58.599Z,17.23
2023-02-06T19:48:29.752Z,15.50
2023-02-06T19:51:12.664Z,16.38
2023-02-06T19:53:47.216Z,15.07
2023-02-06T19:56:23.859Z,21.10
2023-02-06T19:59:00.608Z,16.15
2023-02-06T20:01:36.944Z,12.10
2023-02-06T20:04:08.739Z,11.65
2023-02-06T20:06:40.067Z,11.95
2023-02-06T20:09:11.993Z,13.10
2023-02-06T20:11:44.318Z,15.43
2023-02-06T20:14:15.653Z,13.40
2023-02-06T20:16:48.594Z,13.25
2023-02-06T20:19:23.311Z,13.38
2023-02-06T20:21:56.811Z,12.20
2023-02-06T20:24:31.215Z,15.30
2023-02-06T20:27:07.198Z,12.27
2023-02-06T20:29:41.278Z,15.02
2023-02-06T20:32:13.583Z,12.90
2023-02-06T20:34:45.037Z,12.35
2023-02-06T20:37:16.298Z,11.55
2023-02-06T20:39:47.604Z,10.43
2023-02-06T20:42:20.836Z,12.80
2023-02-06T20:44:51.946Z,13.73
2023-02-06T20:47:22.924Z,13.27
2023-02-06T20:49:54.199Z,13.82
2023-02-06T20:52:25.200Z,17.30
2023-02-06T20:54:56.367Z,13.52
2023-02-06T20:57:28.091Z,11.63
2023-02-06T21:02:30.717Z,11.05
2023-02-06T21:05:02.617Z,12.27
2023-02-06T21:07:34.866Z,11.45
2023-02-06T21:10:06.671Z,11.45
2023-02-06T21:12:38.154Z,10.80
2023-02-06T21:15:09.686Z,13.00
2023-02-06T21:17:41.107Z,11.18
2023-02-06T21:20:12.696Z,14.43
2023-02-06T21:25:14.624Z,9.98
2023-02-06T21:30:16.501Z,11.13
2023-02-06T21:32:47.904Z,15.35
2023-02-06T21:35:18.962Z,12.40
2023-02-06T21:37:50.294Z,13.27
2023-02-06T21:40:22.502Z,9.73
2023-02-06T21:42:53.641Z,13.05
2023-02-06T21:45:25.113Z,12.90
2023-02-06T21:47:56.221Z,7.20
2023-02-06T21:50:27.810Z,8.65
2023-02-06T21:52:59.222Z,9.77
2023-02-06T21:55:33.049Z,10.93
2023-02-06T21:58:04.923Z,11.50
2023-02-06T22:00:35.857Z,12.00
2023-02-06T22:03:06.910Z,14.10
2023-02-06T22:05:39.465Z,10.30
2023-02-06T22:08:10.734Z,11.43
2023-02-06T22:10:41.829Z,9.18
2023-02-06T22:13:13.157Z,10.07
2023-02-06T22:15:52.804Z,8.82
2023-02-06T22:18:24.250Z,8.48
2023-02-06T22:21:06.511Z,9.82
2023-02-06T22:23:38.201Z,10.63
2023-02-06T22:26:11.032Z,10.48
2023-02-06T22:28:43.266Z,11.82
2023-02-06T22:31:15.493Z,9.48
2023-02-06T22:33:46.704Z,9.65
2023-02-06T22:36:20.065Z,11.20
2023-02-06T22:38:58.892Z,10.55
2023-02-06T22:41:30.999Z,10.88
2023-02-06T22:44:02.382Z,10.73
2023-02-06T22:46:36.443Z,11.23
2023-02-06T22:49:08.781Z,10.77
2023-02-06T22:51:41.342Z,11.38
2023-02-06T22:54:12.919Z,10.35
2023-02-06T22:59:21.227Z,11.30
2023-02-06T23:02:00.384Z,11.00
2023-02-06T23:04:36.218Z,11.50
2023-02-06T23:07:07.970Z,8.68
2023-02-06T23:12:12.878Z,10.23
2023-02-06T23:14:45.362Z,10.68
2023-02-06T23:17:16.819Z,8.63
2023-02-06T23:19:47.897Z,7.30
2023-02-06T23:24:53.043Z,9.52
2023-02-06T23:27:24.381Z,8.98
2023-02-06T23:29:55.438Z,9.95
2023-02-06T23:34:57.990Z,9.50
2023-02-06T23:37:32.210Z,8.07
2023-02-06T23:40:03.610Z,9.82
2023-02-06T23:42:34.899Z,8.30
2023-02-06T23:47:37.395Z,9.07
2023-02-06T23:50:08.815Z,5.10
2023-02-06T23:52:40.257Z,8.30
2023-02-06T23:55:12.030Z,8.40
2023-02-06T23:57:43.621Z,8.43
